createdAt,value
2018-01-15T00:00:09.554Z,959.12
2018-01-15T00:01:09.557Z,959.12
2018-01-15T00:02:09.558Z,959.12
2018-01-15T00:03:09.560Z,959.13
2018-01-15T00:04:09.560Z,959.15
2018-01-15T00:05:09.559Z,959.15
2018-01-15T00:06:09.565Z,959.16
2018-01-15T00:07:09.565Z,959.18
2018-01-15T00:08:09.566Z,959.18
2018-01-15T00:09:09.568Z,959.16
2018-01-15T00:10:09.570Z,959.16
2018-01-15T00:11:09.571Z,959.16
2018-01-15T00:12:09.571Z,959.18
2018-01-15T00:13:09.573Z,959.15
2018-01-15T00:14:09.575Z,959.17
2018-01-15T00:15:09.575Z,959.13
2018-01-15T00:16:09.577Z,959.13
2018-01-15T00:17:09.580Z,959.14
2018-01-15T00:18:09.581Z,959.17
2018-01-15T00:19:09.582Z,959.14
2018-01-15T00:20:09.579Z,959.15
2018-01-15T00:21:09.581Z,959.14
2018-01-15T00:22:09.586Z,959.15
2018-01-15T00:23:09.588Z,959.11
2018-01-15T00:24:09.589Z,959.08
2018-01-15T00:25:09.589Z,959.08
2018-01-15T00:26:09.590Z,959.12
2018-01-15T00:27:09.593Z,959.10
2018-01-15T00:28:09.593Z,959.07
2018-01-15T00:29:09.595Z,959.03
2018-01-15T00:30:09.595Z,959.01
2018-01-15T00:31:09.601Z,959.04
2018-01-15T00:32:09.598Z,959.03
2018-01-15T00:33:09.600Z,959.01
2018-01-15T00:34:09.646Z,959.03
2018-01-15T00:35:09.601Z,959.03
2018-01-15T00:36:09.604Z,959.00
2018-01-15T00:37:09.607Z,959.01
2018-01-15T00:38:09.608Z,959.04
2018-01-15T00:39:09.605Z,959.04
2018-01-15T00:40:09.667Z,959.09
2018-01-15T00:41:09.610Z,959.09
2018-01-15T00:42:09.612Z,959.06
2018-01-15T00:43:09.615Z,959.10
2018-01-15T00:44:09.614Z,959.06
2018-01-15T00:45:09.614Z,959.09
2018-01-15T00:46:09.617Z,959.10
2018-01-15T00:47:09.623Z,959.16
2018-01-15T00:48:09.618Z,959.15
2018-01-15T00:49:09.620Z,959.18
2018-01-15T00:50:09.623Z,959.17
2018-01-15T00:51:09.622Z,959.22
2018-01-15T00:52:09.625Z,959.19
2018-01-15T00:53:09.633Z,959.17
2018-01-15T00:54:09.627Z,959.16
2018-01-15T00:55:09.626Z,959.17
2018-01-15T00:56:09.631Z,959.14
2018-01-15T00:57:09.631Z,959.14
2018-01-15T00:58:09.633Z,959.13
2018-01-15T00:59:09.635Z,959.10
2018-01-15T01:00:09.632Z,959.09
2018-01-15T01:01:09.634Z,959.07
2018-01-15T01:02:09.639Z,959.14
2018-01-15T01:03:09.640Z,959.10
2018-01-15T01:04:09.641Z,959.07
2018-01-15T01:05:09.641Z,959.06
2018-01-15T01:06:09.644Z,959.03
2018-01-15T01:07:09.645Z,959.02
2018-01-15T01:08:09.645Z,959.03
2018-01-15T01:09:09.647Z,958.98
2018-01-15T01:10:09.645Z,959.01
2018-01-15T01:11:09.649Z,958.99
2018-01-15T01:12:09.650Z,958.98
2018-01-15T01:13:09.656Z,958.98
2018-01-15T01:14:09.653Z,958.99
2018-01-15T01:15:09.655Z,958.98
2018-01-15T01:16:09.656Z,959.00
2018-01-15T01:17:09.654Z,959.01
2018-01-15T01:18:09.658Z,959.02
2018-01-15T01:19:09.661Z,959.01
2018-01-15T01:20:09.661Z,959.01
2018-01-15T01:21:09.662Z,959.01
2018-01-15T01:22:09.662Z,959.03
2018-01-15T01:23:09.665Z,958.97
2018-01-15T01:24:09.666Z,958.98
2018-01-15T01:25:09.665Z,958.94
2018-01-15T01:26:09.668Z,958.95
2018-01-15T01:27:09.672Z,958.97
2018-01-15T01:28:09.671Z,958.95
2018-01-15T01:29:09.672Z,958.95
2018-01-15T01:30:09.672Z,958.92
2018-01-15T01:31:09.676Z,958.92
2018-01-15T01:32:09.676Z,958.95
2018-01-15T01:33:09.677Z,958.93
2018-01-15T01:34:09.678Z,958.95
2018-01-15T01:35:09.676Z,958.97
2018-01-15T01:36:09.679Z,958.93
2018-01-15T01:37:09.682Z,958.97
2018-01-15T01:38:09.697Z,958.96
2018-01-15T01:39:09.686Z,958.94
2018-01-15T01:40:09.689Z,958.95
2018-01-15T01:41:09.687Z,958.89
2018-01-15T01:42:09.689Z,958.88
2018-01-15T01:43:09.691Z,958.86
2018-01-15T01:44:09.691Z,958.89
2018-01-15T01:45:09.691Z,958.93
2018-01-15T01:46:09.694Z,958.91
2018-01-15T01:47:09.695Z,958.93
2018-01-15T01:48:09.698Z,958.91
2018-01-15T01:49:09.697Z,958.94
2018-01-15T01:50:09.696Z,958.93
2018-01-15T01:51:09.700Z,958.88
2018-01-15T01:52:09.700Z,958.89
2018-01-15T01:53:09.702Z,958.84
2018-01-15T01:54:09.703Z,958.80
2018-01-15T01:55:09.705Z,958.79
2018-01-15T01:56:09.707Z,958.79
2018-01-15T01:57:09.707Z,958.80
2018-01-15T01:58:09.708Z,958.84
2018-01-15T01:59:09.710Z,958.86
2018-01-15T02:00:09.708Z,958.87
2018-01-15T02:01:09.712Z,958.91
2018-01-15T02:02:09.711Z,958.91
2018-01-15T02:03:09.715Z,958.92
2018-01-15T02:04:09.716Z,958.87
2018-01-15T02:05:09.717Z,958.87
2018-01-15T02:06:09.718Z,958.87
2018-01-15T02:07:09.719Z,958.87
2018-01-15T02:08:09.718Z,958.88
2018-01-15T02:09:09.721Z,958.93
2018-01-15T02:10:09.734Z,958.90
2018-01-15T02:11:09.724Z,958.92
2018-01-15T02:12:09.731Z,958.91
2018-01-15T02:13:09.727Z,958.88
2018-01-15T02:14:09.727Z,958.89
2018-01-15T02:15:09.729Z,958.89
2018-01-15T02:16:09.731Z,958.91
2018-01-15T02:17:09.731Z,958.87
2018-01-15T02:18:09.731Z,958.85
2018-01-15T02:19:09.738Z,958.87
2018-01-15T02:20:09.731Z,958.82
2018-01-15T02:21:09.735Z,958.84
2018-01-15T02:22:09.736Z,958.83
2018-01-15T02:23:09.739Z,958.80
2018-01-15T02:24:09.739Z,958.78
2018-01-15T02:25:09.741Z,958.78
2018-01-15T02:26:09.742Z,958.76
2018-01-15T02:27:09.748Z,958.69
2018-01-15T02:28:09.744Z,958.72
2018-01-15T02:29:09.746Z,958.71
2018-01-15T02:30:09.747Z,958.67
2018-01-15T02:31:09.749Z,958.71
2018-01-15T02:32:09.749Z,958.70
2018-01-15T02:33:09.755Z,958.70
2018-01-15T02:34:09.752Z,958.71
2018-01-15T02:35:09.755Z,958.72
2018-01-15T02:36:09.754Z,958.72
2018-01-15T02:37:09.761Z,958.76
2018-01-15T02:38:09.757Z,958.78
2018-01-15T02:39:09.758Z,958.77
2018-01-15T02:40:09.758Z,958.77
2018-01-15T02:41:09.758Z,958.77
2018-01-15T02:42:09.761Z,958.78
2018-01-15T02:43:09.762Z,958.75
2018-01-15T02:44:09.769Z,958.75
2018-01-15T02:45:09.765Z,958.76
2018-01-15T02:46:09.765Z,958.73
2018-01-15T02:47:09.766Z,958.71
2018-01-15T02:48:09.768Z,958.70
2018-01-15T02:49:09.769Z,958.69
2018-01-15T02:50:09.768Z,958.66
2018-01-15T02:51:09.771Z,958.65
2018-01-15T02:52:09.773Z,958.60
2018-01-15T02:53:09.775Z,958.65
2018-01-15T02:54:09.776Z,958.65
2018-01-15T02:55:09.775Z,958.68
2018-01-15T02:56:09.778Z,958.70
2018-01-15T02:57:09.778Z,958.72
2018-01-15T02:58:09.779Z,958.72
2018-01-15T02:59:09.788Z,958.71
2018-01-15T03:00:09.782Z,958.74
2018-01-15T03:01:09.782Z,958.70
2018-01-15T03:02:09.783Z,958.75
2018-01-15T03:03:09.786Z,958.74
2018-01-15T03:04:09.786Z,958.74
2018-01-15T03:05:09.785Z,958.70
2018-01-15T03:06:09.795Z,958.72
2018-01-15T03:07:09.790Z,958.64
2018-01-15T03:08:09.792Z,958.65
2018-01-15T03:09:09.792Z,958.61
2018-01-15T03:10:09.793Z,958.56
2018-01-15T03:11:09.796Z,958.52
2018-01-15T03:12:09.794Z,958.51
2018-01-15T03:13:09.798Z,958.48
2018-01-15T03:14:09.798Z,958.44
2018-01-15T03:15:09.799Z,958.45
2018-01-15T03:16:09.800Z,958.46
2018-01-15T03:17:09.801Z,958.44
2018-01-15T03:18:09.801Z,958.46
2018-01-15T03:19:09.804Z,958.49
2018-01-15T03:20:09.804Z,958.48
2018-01-15T03:21:09.804Z,958.46
2018-01-15T03:22:09.806Z,958.47
2018-01-15T03:23:09.809Z,958.45
2018-01-15T03:24:09.814Z,958.46
2018-01-15T03:25:09.810Z,958.46
2018-01-15T03:26:09.812Z,958.41
2018-01-15T03:27:09.820Z,958.42
2018-01-15T03:28:09.814Z,958.41
2018-01-15T03:29:09.817Z,958.39
2018-01-15T03:30:09.819Z,958.38
2018-01-15T03:31:09.822Z,958.41
2018-01-15T03:32:09.819Z,958.39
2018-01-15T03:33:09.820Z,958.39
2018-01-15T03:34:09.824Z,958.40
2018-01-15T03:35:09.818Z,958.39
2018-01-15T03:36:09.822Z,958.36
2018-01-15T03:37:09.824Z,958.33
2018-01-15T03:38:09.825Z,958.34
2018-01-15T03:39:09.825Z,958.28
2018-01-15T03:40:09.836Z,958.28
2018-01-15T03:41:09.826Z,958.28
2018-01-15T03:42:09.830Z,958.28
2018-01-15T03:43:09.847Z,958.23
2018-01-15T03:44:09.832Z,958.23
2018-01-15T03:45:09.833Z,958.22
2018-01-15T03:46:09.834Z,958.24
2018-01-15T03:47:09.835Z,958.24
2018-01-15T03:48:09.834Z,958.21
2018-01-15T03:49:09.837Z,958.22
2018-01-15T03:50:09.838Z,958.22
2018-01-15T03:51:09.840Z,958.24
2018-01-15T03:52:09.840Z,958.23
2018-01-15T03:53:09.842Z,958.24
2018-01-15T03:54:09.844Z,958.20
2018-01-15T03:55:09.842Z,958.23
2018-01-15T03:56:09.845Z,958.23
2018-01-15T03:57:09.846Z,958.24
2018-01-15T03:58:09.847Z,958.27
2018-01-15T03:59:09.848Z,958.24
2018-01-15T04:00:09.849Z,958.24
2018-01-15T04:01:09.851Z,958.27
2018-01-15T04:02:09.853Z,958.31
2018-01-15T04:03:09.854Z,958.33
2018-01-15T04:04:09.854Z,958.31
2018-01-15T04:05:09.855Z,958.31
2018-01-15T04:06:09.857Z,958.30
2018-01-15T04:07:09.857Z,958.38
2018-01-15T04:08:09.859Z,958.34
2018-01-15T04:09:09.859Z,958.38
2018-01-15T04:10:09.866Z,958.37
2018-01-15T04:11:09.864Z,958.33
2018-01-15T04:12:09.862Z,958.29
2018-01-15T04:13:09.919Z,958.34
2018-01-15T04:14:09.864Z,958.32
2018-01-15T04:15:09.867Z,958.31
2018-01-15T04:16:09.870Z,958.28
2018-01-15T04:17:09.868Z,958.31
2018-01-15T04:18:09.869Z,958.27
2018-01-15T04:19:09.872Z,958.30
2018-01-15T04:20:09.879Z,958.28
2018-01-15T04:21:09.873Z,958.30
2018-01-15T04:22:09.877Z,958.26
2018-01-15T04:23:09.878Z,958.31
2018-01-15T04:24:09.877Z,958.30
2018-01-15T04:25:09.877Z,958.29
2018-01-15T04:26:09.884Z,958.30
2018-01-15T04:27:09.881Z,958.28
2018-01-15T04:28:09.886Z,958.30
2018-01-15T04:29:09.882Z,958.31
2018-01-15T04:30:09.884Z,958.30
2018-01-15T04:31:09.884Z,958.31
2018-01-15T04:32:09.886Z,958.28
2018-01-15T04:33:09.888Z,958.29
2018-01-15T04:34:09.889Z,958.24
2018-01-15T04:35:09.889Z,958.22
2018-01-15T04:36:09.891Z,958.25
2018-01-15T04:37:09.892Z,958.20
2018-01-15T04:38:09.896Z,958.25
2018-01-15T04:39:09.897Z,958.21
2018-01-15T04:40:09.896Z,958.20
2018-01-15T04:41:09.897Z,958.22
2018-01-15T04:42:09.900Z,958.24
2018-01-15T04:43:09.902Z,958.26
2018-01-15T04:44:09.903Z,958.19
2018-01-15T04:45:09.905Z,958.24
2018-01-15T04:46:09.907Z,958.21
2018-01-15T04:47:09.909Z,958.20
2018-01-15T04:48:09.908Z,958.17
2018-01-15T04:49:09.911Z,958.13
2018-01-15T04:50:09.912Z,958.13
2018-01-15T04:51:09.909Z,958.16
2018-01-15T04:52:09.912Z,958.15
2018-01-15T04:53:09.916Z,958.15
2018-01-15T04:54:09.917Z,958.17
2018-01-15T04:55:09.917Z,958.16
2018-01-15T04:56:09.919Z,958.16
2018-01-15T04:57:09.922Z,958.08
2018-01-15T04:58:09.922Z,958.07
2018-01-15T04:59:09.931Z,958.09
2018-01-15T05:00:09.921Z,958.08
2018-01-15T05:01:09.923Z,958.06
2018-01-15T05:02:09.928Z,958.02
2018-01-15T05:03:09.930Z,958.18
2018-01-15T05:04:09.931Z,958.09
2018-01-15T05:05:09.952Z,958.08
2018-01-15T05:06:09.940Z,958.05
2018-01-15T05:07:09.935Z,958.00
2018-01-15T05:08:09.934Z,958.01
2018-01-15T05:09:09.936Z,957.97
2018-01-15T05:10:09.937Z,957.98
2018-01-15T05:11:09.939Z,958.00
2018-01-15T05:12:09.940Z,958.01
2018-01-15T05:13:09.941Z,958.02
2018-01-15T05:14:09.941Z,958.01
2018-01-15T05:15:09.946Z,958.02
2018-01-15T05:16:09.943Z,958.02
2018-01-15T05:17:09.945Z,957.99
2018-01-15T05:18:09.946Z,957.97
2018-01-15T05:19:09.947Z,957.98
2018-01-15T05:20:09.948Z,957.99
2018-01-15T05:21:09.950Z,957.97
2018-01-15T05:22:09.951Z,957.98
2018-01-15T05:23:09.953Z,957.97
2018-01-15T05:24:09.954Z,957.96
2018-01-15T05:25:09.956Z,958.01
2018-01-15T05:26:09.962Z,958.04
2018-01-15T05:27:09.958Z,958.09
2018-01-15T05:28:09.958Z,958.06
2018-01-15T05:29:09.963Z,958.06
2018-01-15T05:30:09.960Z,958.06
2018-01-15T05:31:09.963Z,958.02
2018-01-15T05:32:09.965Z,957.99
2018-01-15T05:33:09.966Z,958.02
2018-01-15T05:34:09.977Z,958.05
2018-01-15T05:35:09.975Z,958.04
2018-01-15T05:36:09.978Z,958.07
2018-01-15T05:37:09.979Z,958.10
2018-01-15T05:38:09.980Z,958.08
2018-01-15T05:39:09.982Z,958.10
2018-01-15T05:40:09.980Z,958.11
2018-01-15T05:41:09.983Z,958.05
2018-01-15T05:42:09.984Z,958.10
2018-01-15T05:43:09.985Z,958.04
2018-01-15T05:44:09.987Z,958.12
2018-01-15T05:45:09.987Z,958.09
2018-01-15T05:46:09.988Z,958.07
2018-01-15T05:47:09.990Z,958.08
2018-01-15T05:48:09.993Z,958.03
2018-01-15T05:49:09.992Z,958.04
2018-01-15T05:50:09.992Z,958.06
2018-01-15T05:51:09.996Z,958.02
2018-01-15T05:52:09.997Z,958.01
2018-01-15T05:53:09.999Z,958.01
2018-01-15T05:54:10.005Z,958.01
2018-01-15T05:55:10.000Z,957.97
2018-01-15T05:56:10.005Z,958.01
2018-01-15T05:57:10.006Z,958.00
2018-01-15T05:58:10.008Z,957.99
2018-01-15T05:59:10.015Z,958.03
2018-01-15T06:00:10.009Z,958.06
2018-01-15T06:01:10.011Z,958.07
2018-01-15T06:02:10.015Z,958.09
2018-01-15T06:03:10.016Z,958.10
2018-01-15T06:04:10.017Z,958.09
2018-01-15T06:05:10.018Z,958.11
2018-01-15T06:06:10.023Z,958.08
2018-01-15T06:07:10.024Z,958.07
2018-01-15T06:08:10.026Z,958.01
2018-01-15T06:09:10.025Z,957.95
2018-01-15T06:10:10.031Z,957.95
2018-01-15T06:11:10.029Z,957.93
2018-01-15T06:12:10.032Z,957.92
2018-01-15T06:13:10.034Z,957.94
2018-01-15T06:14:10.037Z,957.89
2018-01-15T06:15:10.038Z,957.87
2018-01-15T06:16:10.039Z,957.87
2018-01-15T06:17:10.041Z,957.88
2018-01-15T06:18:10.043Z,957.81
2018-01-15T06:19:10.045Z,957.83
2018-01-15T06:20:10.045Z,957.82
2018-01-15T06:21:10.048Z,957.82
2018-01-15T06:22:10.050Z,957.80
2018-01-15T06:23:10.052Z,957.81
2018-01-15T06:24:10.055Z,957.85
2018-01-15T06:25:10.054Z,957.84
2018-01-15T06:26:10.057Z,957.86
2018-01-15T06:27:10.060Z,957.87
2018-01-15T06:28:10.062Z,957.88
2018-01-15T06:29:10.063Z,957.91
2018-01-15T06:30:10.061Z,957.90
2018-01-15T06:31:10.073Z,957.88
2018-01-15T06:32:10.084Z,957.94
2018-01-15T06:33:10.077Z,957.99
2018-01-15T06:34:10.071Z,957.99
2018-01-15T06:35:10.074Z,958.03
2018-01-15T06:36:10.076Z,958.04
2018-01-15T06:37:10.077Z,958.03
2018-01-15T06:38:10.080Z,958.02
2018-01-15T06:39:10.078Z,958.01
2018-01-15T06:40:10.082Z,957.96
2018-01-15T06:41:10.082Z,958.01
2018-01-15T06:42:10.087Z,958.02
2018-01-15T06:43:10.090Z,958.05
2018-01-15T06:44:10.091Z,958.04
2018-01-15T06:45:10.091Z,958.06
2018-01-15T06:46:10.092Z,958.05
2018-01-15T06:47:10.096Z,958.03
2018-01-15T06:48:10.096Z,958.02
2018-01-15T06:49:10.099Z,958.00
2018-01-15T06:50:10.103Z,957.96
2018-01-15T06:51:10.102Z,957.99
2018-01-15T06:52:10.105Z,957.98
2018-01-15T06:53:10.111Z,958.00
2018-01-15T06:54:10.110Z,958.05
2018-01-15T06:55:10.111Z,958.04
2018-01-15T06:56:10.111Z,957.99
2018-01-15T06:57:10.115Z,958.02
2018-01-15T06:58:10.129Z,958.00
2018-01-15T06:59:10.120Z,958.03
2018-01-15T07:00:10.122Z,958.00
2018-01-15T07:01:10.130Z,957.99
2018-01-15T07:02:10.128Z,957.94
2018-01-15T07:03:10.128Z,957.92
2018-01-15T07:04:10.128Z,957.92
2018-01-15T07:05:10.129Z,957.86
2018-01-15T07:06:10.132Z,957.91
2018-01-15T07:07:10.136Z,957.93
2018-01-15T07:08:10.137Z,957.90
2018-01-15T07:09:10.141Z,957.92
2018-01-15T07:10:10.141Z,957.95
2018-01-15T07:11:10.143Z,957.90
2018-01-15T07:12:10.145Z,957.85
2018-01-15T07:13:10.149Z,957.87
2018-01-15T07:14:10.152Z,957.86
2018-01-15T07:15:10.150Z,957.86
2018-01-15T07:16:10.153Z,957.85
2018-01-15T07:17:10.155Z,957.83
2018-01-15T07:18:10.156Z,957.85
2018-01-15T07:19:10.160Z,957.84
2018-01-15T07:20:10.161Z,957.80
2018-01-15T07:21:10.164Z,957.81
2018-01-15T07:22:10.165Z,957.69
2018-01-15T07:23:10.170Z,957.71
2018-01-15T07:24:10.169Z,957.73
2018-01-15T07:25:10.171Z,957.76
2018-01-15T07:26:10.173Z,957.78
2018-01-15T07:27:10.178Z,957.79
2018-01-15T07:28:10.178Z,957.79
2018-01-15T07:29:10.180Z,957.77
2018-01-15T07:30:10.183Z,957.76
2018-01-15T07:31:10.185Z,957.79
2018-01-15T07:32:10.187Z,957.77
2018-01-15T07:33:10.189Z,957.74
2018-01-15T07:34:10.193Z,957.76
2018-01-15T07:35:10.194Z,957.76
2018-01-15T07:36:10.196Z,957.74
2018-01-15T07:37:10.201Z,957.80
2018-01-15T07:38:10.200Z,957.80
2018-01-15T07:39:10.204Z,957.81
2018-01-15T07:40:10.204Z,957.81
2018-01-15T07:41:10.208Z,957.80
2018-01-15T07:42:10.209Z,957.85
2018-01-15T07:43:10.213Z,957.82
2018-01-15T07:44:10.214Z,957.89
2018-01-15T07:45:10.216Z,957.87
2018-01-15T07:46:10.218Z,957.87
2018-01-15T07:47:10.222Z,957.85
2018-01-15T07:48:10.226Z,957.90
2018-01-15T07:49:10.225Z,957.85
2018-01-15T07:50:10.228Z,957.84
2018-01-15T07:51:10.237Z,957.83
2018-01-15T07:52:10.233Z,957.83
2018-01-15T07:53:10.236Z,957.86
2018-01-15T07:54:10.239Z,957.82
2018-01-15T07:55:10.240Z,957.81
2018-01-15T07:56:10.240Z,957.83
2018-01-15T07:57:10.244Z,957.86
2018-01-15T07:58:10.246Z,957.85
2018-01-15T07:59:10.251Z,957.88
2018-01-15T08:00:10.251Z,957.86
2018-01-15T08:01:10.254Z,957.83
2018-01-15T08:02:10.257Z,957.79
2018-01-15T08:03:10.263Z,957.80
2018-01-15T08:04:10.262Z,957.79
2018-01-15T08:05:10.264Z,957.76
2018-01-15T08:06:10.268Z,957.72
2018-01-15T08:07:10.268Z,957.74
2018-01-15T08:08:10.271Z,957.71
2018-01-15T08:09:10.274Z,957.68
2018-01-15T08:10:10.277Z,957.64
2018-01-15T08:11:10.279Z,957.65
2018-01-15T08:12:10.285Z,957.61
2018-01-15T08:13:10.284Z,957.66
2018-01-15T08:14:10.287Z,957.60
2018-01-15T08:15:10.288Z,957.57
2018-01-15T08:16:10.310Z,957.51
2018-01-15T08:17:10.294Z,957.56
2018-01-15T08:18:10.301Z,957.52
2018-01-15T08:19:10.300Z,957.54
2018-01-15T08:20:10.301Z,957.48
2018-01-15T08:21:10.315Z,957.48
2018-01-15T08:22:10.307Z,957.47
2018-01-15T08:23:10.311Z,957.50
2018-01-15T08:24:10.312Z,957.55
2018-01-15T08:25:10.363Z,957.52
2018-01-15T08:26:10.317Z,957.52
2018-01-15T08:27:10.321Z,957.57
2018-01-15T08:28:10.323Z,957.59
2018-01-15T08:29:10.338Z,957.63
2018-01-15T08:30:10.328Z,957.62
2018-01-15T08:31:10.330Z,957.62
2018-01-15T08:32:10.334Z,957.61
2018-01-15T08:33:10.400Z,957.59
2018-01-15T08:34:10.337Z,957.60
2018-01-15T08:35:10.342Z,957.54
2018-01-15T08:36:10.343Z,957.60
2018-01-15T08:37:10.346Z,957.64
2018-01-15T08:38:10.349Z,957.58
2018-01-15T08:39:10.354Z,957.59
2018-01-15T08:40:10.352Z,957.60
2018-01-15T08:41:10.353Z,957.59
2018-01-15T08:42:10.360Z,957.59
2018-01-15T08:43:10.364Z,957.59
2018-01-15T08:44:10.365Z,957.60
2018-01-15T08:45:10.369Z,957.60
2018-01-15T08:46:10.371Z,957.55
2018-01-15T08:47:10.385Z,957.57
2018-01-15T08:48:10.384Z,957.67
2018-01-15T08:49:10.380Z,957.61
2018-01-15T08:50:10.380Z,957.64
2018-01-15T08:51:10.385Z,957.63
2018-01-15T08:52:10.388Z,957.63
2018-01-15T08:53:10.389Z,957.57
2018-01-15T08:54:10.391Z,957.54
2018-01-15T08:55:10.397Z,957.51
2018-01-15T08:56:10.395Z,957.51
2018-01-15T08:57:10.400Z,957.51
2018-01-15T08:58:10.475Z,957.57
2018-01-15T08:59:10.405Z,957.54
2018-01-15T09:00:10.406Z,957.55
2018-01-15T09:01:10.413Z,957.56
2018-01-15T09:02:10.413Z,957.54
2018-01-15T09:03:10.416Z,957.52
2018-01-15T09:04:10.427Z,957.50
2018-01-15T09:05:10.423Z,957.53
2018-01-15T09:06:10.443Z,957.49
2018-01-15T09:07:10.427Z,957.50
2018-01-15T09:08:10.428Z,957.44
2018-01-15T09:09:10.433Z,957.46
2018-01-15T09:10:10.435Z,957.46
2018-01-15T09:11:10.435Z,957.47
2018-01-15T09:12:10.441Z,957.46
2018-01-15T09:13:10.443Z,957.48
2018-01-15T09:14:10.446Z,957.46
2018-01-15T09:15:10.450Z,957.44
2018-01-15T09:16:10.452Z,957.44
2018-01-15T09:17:10.454Z,957.37
2018-01-15T09:18:10.457Z,957.36
2018-01-15T09:19:10.467Z,957.32
2018-01-15T09:20:10.468Z,957.26
2018-01-15T09:21:10.466Z,957.27
2018-01-15T09:22:10.470Z,957.26
2018-01-15T09:23:10.476Z,957.25
2018-01-15T09:24:10.474Z,957.25
2018-01-15T09:25:10.476Z,957.25
2018-01-15T09:26:10.479Z,957.24
2018-01-15T09:27:10.482Z,957.24
2018-01-15T09:28:10.484Z,957.20
2018-01-15T09:29:10.488Z,957.20
2018-01-15T09:30:10.491Z,957.19
2018-01-15T09:31:10.495Z,957.17
2018-01-15T09:32:10.497Z,957.12
2018-01-15T09:33:10.498Z,957.15
2018-01-15T09:34:10.501Z,957.12
2018-01-15T09:35:10.512Z,957.17
2018-01-15T09:36:10.512Z,957.19
2018-01-15T09:37:10.508Z,957.19
2018-01-15T09:38:10.512Z,957.18
2018-01-15T09:39:10.515Z,957.18
2018-01-15T09:40:10.514Z,957.16
2018-01-15T09:41:10.519Z,957.14
2018-01-15T09:42:10.522Z,957.06
2018-01-15T09:43:10.526Z,957.03
2018-01-15T09:44:10.529Z,957.02
2018-01-15T09:45:10.530Z,957.05
2018-01-15T09:46:10.535Z,957.07
2018-01-15T09:47:10.537Z,957.03
2018-01-15T09:48:10.539Z,957.00
2018-01-15T09:49:10.542Z,957.05
2018-01-15T09:50:10.544Z,957.03
2018-01-15T09:51:10.549Z,957.07
2018-01-15T09:52:10.549Z,957.09
2018-01-15T09:53:10.553Z,957.08
2018-01-15T09:54:10.557Z,957.06
2018-01-15T09:55:10.558Z,957.03
2018-01-15T09:56:10.561Z,957.02
2018-01-15T09:57:10.569Z,957.02
2018-01-15T09:58:10.567Z,956.99
2018-01-15T09:59:10.570Z,957.05
2018-01-15T10:00:10.573Z,957.01
2018-01-15T10:01:10.576Z,957.02
2018-01-15T10:02:10.579Z,957.01
2018-01-15T10:03:10.585Z,956.94
2018-01-15T10:04:10.583Z,956.97
2018-01-15T10:05:10.587Z,956.95
2018-01-15T10:06:10.588Z,956.92
2018-01-15T10:07:10.592Z,956.89
2018-01-15T10:08:10.594Z,956.89
2018-01-15T10:09:10.598Z,956.92
2018-01-15T10:10:10.599Z,956.85
2018-01-15T10:11:10.605Z,956.86
2018-01-15T10:12:10.604Z,956.77
2018-01-15T10:13:10.610Z,956.72
2018-01-15T10:14:10.662Z,956.72
2018-01-15T10:15:10.614Z,956.70
2018-01-15T10:16:10.622Z,956.69
2018-01-15T10:17:10.616Z,956.70
2018-01-15T10:18:10.621Z,956.62
2018-01-15T10:19:10.623Z,956.59
2018-01-15T10:20:10.625Z,956.61
2018-01-15T10:21:10.626Z,956.54
2018-01-15T10:22:10.632Z,956.54
2018-01-15T10:23:10.635Z,956.50
2018-01-15T10:24:10.636Z,956.54
2018-01-15T10:25:10.639Z,956.46
2018-01-15T10:26:10.641Z,956.44
2018-01-15T10:27:10.697Z,956.42
2018-01-15T10:28:10.647Z,956.38
2018-01-15T10:29:10.649Z,956.37
2018-01-15T10:30:10.653Z,956.36
2018-01-15T10:31:10.656Z,956.33
2018-01-15T10:32:10.658Z,956.33
2018-01-15T10:33:10.660Z,956.27
2018-01-15T10:34:10.663Z,956.25
2018-01-15T10:35:10.667Z,956.26
2018-01-15T10:36:10.669Z,956.24
2018-01-15T10:37:10.678Z,956.23
2018-01-15T10:38:10.674Z,956.22
2018-01-15T10:39:10.678Z,956.22
2018-01-15T10:40:10.677Z,956.18
2018-01-15T10:41:10.684Z,956.18
2018-01-15T10:42:10.689Z,956.11
2018-01-15T10:43:10.688Z,956.07
2018-01-15T10:44:10.690Z,956.07
2018-01-15T10:45:10.694Z,956.04
2018-01-15T10:46:10.705Z,956.03
2018-01-15T10:47:10.700Z,955.98
2018-01-15T10:48:10.701Z,955.95
2018-01-15T10:49:10.745Z,955.92
2018-01-15T10:50:10.707Z,955.89
2018-01-15T10:51:10.710Z,955.84
2018-01-15T10:52:10.711Z,955.83
2018-01-15T10:53:10.714Z,955.77
2018-01-15T10:54:10.717Z,955.77
2018-01-15T10:55:10.717Z,955.70
2018-01-15T10:56:10.723Z,955.73
2018-01-15T10:57:10.724Z,955.71
2018-01-15T10:58:10.727Z,955.69
2018-01-15T10:59:10.732Z,955.71
2018-01-15T11:00:10.732Z,955.68
2018-01-15T11:01:10.742Z,955.67
2018-01-15T11:02:10.757Z,955.63
2018-01-15T11:03:10.748Z,955.60
2018-01-15T11:04:10.746Z,955.60
2018-01-15T11:05:10.747Z,955.58
2018-01-15T11:06:10.757Z,955.54
2018-01-15T11:07:10.752Z,955.51
2018-01-15T11:08:10.753Z,955.45
2018-01-15T11:09:10.756Z,955.41
2018-01-15T11:10:10.759Z,955.42
2018-01-15T11:11:10.784Z,955.39
2018-01-15T11:12:10.764Z,955.36
2018-01-15T11:13:10.766Z,955.38
2018-01-15T11:14:10.796Z,955.34
2018-01-15T11:15:10.772Z,955.32
2018-01-15T11:16:10.775Z,955.33
2018-01-15T11:17:10.777Z,955.30
2018-01-15T11:18:10.781Z,955.27
2018-01-15T11:19:10.782Z,955.25
2018-01-15T11:20:10.784Z,955.23
2018-01-15T11:21:10.787Z,955.17
2018-01-15T11:22:10.790Z,955.13
2018-01-15T11:23:10.795Z,955.14
2018-01-15T11:24:10.795Z,955.06
2018-01-15T11:25:10.796Z,955.08
2018-01-15T11:26:10.816Z,955.03
2018-01-15T11:27:10.803Z,955.02
2018-01-15T11:28:10.805Z,955.00
2018-01-15T11:29:10.808Z,955.01
2018-01-15T11:30:10.812Z,955.00
2018-01-15T11:31:10.814Z,954.93
2018-01-15T11:32:10.816Z,954.98
2018-01-15T11:33:10.820Z,954.97
2018-01-15T11:34:10.828Z,954.97
2018-01-15T11:35:10.826Z,954.99
2018-01-15T11:36:10.825Z,954.96
2018-01-15T11:37:10.829Z,954.93
2018-01-15T11:38:10.835Z,954.91
2018-01-15T11:39:10.837Z,954.88
2018-01-15T11:40:10.838Z,954.85
2018-01-15T11:41:10.854Z,955.00
2018-01-15T11:42:10.845Z,954.96
2018-01-15T11:43:10.847Z,954.94
2018-01-15T11:44:10.848Z,954.95
2018-01-15T11:45:10.850Z,954.91
2018-01-15T11:46:10.856Z,954.75
2018-01-15T11:47:10.855Z,954.81
2018-01-15T11:48:10.857Z,954.79
2018-01-15T11:49:10.859Z,954.72
2018-01-15T11:50:10.858Z,954.70
2018-01-15T11:51:10.864Z,954.74
2018-01-15T11:52:10.862Z,954.69
2018-01-15T11:53:10.868Z,954.74
2018-01-15T11:54:10.868Z,954.68
2018-01-15T11:55:10.869Z,954.69
2018-01-15T11:56:10.872Z,954.70
2018-01-15T11:57:10.872Z,954.67
2018-01-15T11:58:10.872Z,954.68
2018-01-15T11:59:10.874Z,954.61
2018-01-15T12:00:10.875Z,954.50
2018-01-15T12:01:10.877Z,954.53
2018-01-15T12:02:10.880Z,954.51
2018-01-15T12:03:10.881Z,954.51
2018-01-15T12:04:10.881Z,954.52
2018-01-15T12:05:10.883Z,954.49
2018-01-15T12:06:10.885Z,954.47
2018-01-15T12:07:10.888Z,954.44
2018-01-15T12:08:10.888Z,954.42
2018-01-15T12:09:10.890Z,954.40
2018-01-15T12:10:10.895Z,954.36
2018-01-15T12:11:10.926Z,954.38
2018-01-15T12:12:10.896Z,954.34
2018-01-15T12:13:10.907Z,954.29
2018-01-15T12:14:10.909Z,954.29
2018-01-15T12:15:10.906Z,954.24
2018-01-15T12:16:10.919Z,954.26
2018-01-15T12:17:10.909Z,954.21
2018-01-15T12:18:10.914Z,954.13
2018-01-15T12:19:10.917Z,954.17
2018-01-15T12:20:10.926Z,954.17
2018-01-15T12:21:10.950Z,954.11
2018-01-15T12:22:10.920Z,954.13
2018-01-15T12:23:10.921Z,954.08
2018-01-15T12:24:10.922Z,954.10
2018-01-15T12:25:10.923Z,954.01
2018-01-15T12:26:10.928Z,953.98
2018-01-15T12:27:10.929Z,953.93
2018-01-15T12:28:10.944Z,953.94